sensor_id;sensor_type;location;lat;lon;timestamp;P1;durP1;ratioP1;P2;durP2;ratioP2
73684;SDS011;61985;51.070;14.064;2023-06-14T00:00:35;3.97;;;2.67;;
73684;SDS011;61985;51.070;14.064;2023-06-14T00:03:01;5.45;;;2.80;;
73684;SDS011;61985;51.070;14.064;2023-06-14T00:05:28;4.25;;;2.35;;
73684;SDS011;61985;51.070;14.064;2023-06-14T00:07:54;5.82;;;2.50;;
73684;SDS011;61985;51.070;14.064;2023-06-14T00:10:20;5.32;;;2.80;;
73684;SDS011;61985;51.070;14.064;2023-06-14T00:12:45;5.82;;;2.70;;
73684;SDS011;61985;51.070;14.064;2023-06-14T00:15:10;4.57;;;2.55;;
73684;SDS011;61985;51.070;14.064;2023-06-14T00:17:36;6.63;;;2.70;;
73684;SDS011;61985;51.070;14.064;2023-06-14T00:20:04;3.88;;;2.70;;
73684;SDS011;61985;51.070;14.064;2023-06-14T00:22:33;5.07;;;2.53;;
73684;SDS011;61985;51.070;14.064;2023-06-14T00:24:58;5.32;;;2.67;;
73684;SDS011;61985;51.070;14.064;2023-06-14T00:27:23;3.50;;;2.53;;
73684;SDS011;61985;51.070;14.064;2023-06-14T00:29:49;4.35;;;2.67;;
73684;SDS011;61985;51.070;14.064;2023-06-14T00:32:15;4.10;;;2.60;;
73684;SDS011;61985;51.070;14.064;2023-06-14T00:34:40;5.72;;;2.90;;
73684;SDS011;61985;51.070;14.064;2023-06-14T00:37:05;6.53;;;2.90;;
73684;SDS011;61985;51.070;14.064;2023-06-14T00:39:31;6.68;;;3.00;;
73684;SDS011;61985;51.070;14.064;2023-06-14T00:41:56;5.10;;;3.08;;
73684;SDS011;61985;51.070;14.064;2023-06-14T00:44:22;6.82;;;3.00;;
73684;SDS011;61985;51.070;14.064;2023-06-14T00:46:48;5.97;;;2.90;;
73684;SDS011;61985;51.070;14.064;2023-06-14T00:49:14;6.10;;;3.28;;
73684;SDS011;61985;51.070;14.064;2023-06-14T00:51:41;4.40;;;3.05;;
73684;SDS011;61985;51.070;14.064;2023-06-14T00:54:07;5.60;;;3.28;;
73684;SDS011;61985;51.070;14.064;2023-06-14T00:56:32;6.40;;;3.28;;
73684;SDS011;61985;51.070;14.064;2023-06-14T00:58:58;6.13;;;3.55;;
73684;SDS011;61985;51.070;14.064;2023-06-14T01:01:23;7.30;;;3.22;;
73684;SDS011;61985;51.070;14.064;2023-06-14T01:03:49;6.35;;;2.90;;
73684;SDS011;61985;51.070;14.064;2023-06-14T01:12:00;5.10;;;3.10;;
73684;SDS011;61985;51.070;14.064;2023-06-14T01:14:36;7.55;;;3.42;;
73684;SDS011;61985;51.070;14.064;2023-06-14T01:17:03;5.50;;;3.55;;
73684;SDS011;61985;51.070;14.064;2023-06-14T01:19:29;5.25;;;3.10;;
73684;SDS011;61985;51.070;14.064;2023-06-14T01:21:56;9.32;;;3.50;;
73684;SDS011;61985;51.070;14.064;2023-06-14T01:24:22;8.27;;;3.65;;
73684;SDS011;61985;51.070;14.064;2023-06-14T01:26:53;8.13;;;3.45;;
73684;SDS011;61985;51.070;14.064;2023-06-14T01:29:22;6.75;;;3.58;;
73684;SDS011;61985;51.070;14.064;2023-06-14T01:31:49;5.15;;;3.35;;
73684;SDS011;61985;51.070;14.064;2023-06-14T01:34:14;7.25;;;3.95;;
73684;SDS011;61985;51.070;14.064;2023-06-14T01:36:40;8.88;;;4.28;;
73684;SDS011;61985;51.070;14.064;2023-06-14T01:39:08;7.43;;;3.70;;
73684;SDS011;61985;51.070;14.064;2023-06-14T01:41:34;7.10;;;3.80;;
73684;SDS011;61985;51.070;14.064;2023-06-14T01:44:00;7.32;;;3.88;;
73684;SDS011;61985;51.070;14.064;2023-06-14T01:46:27;6.75;;;4.13;;
73684;SDS011;61985;51.070;14.064;2023-06-14T01:48:52;8.00;;;4.13;;
73684;SDS011;61985;51.070;14.064;2023-06-14T01:51:18;7.22;;;3.78;;
73684;SDS011;61985;51.070;14.064;2023-06-14T01:53:43;6.18;;;3.80;;
73684;SDS011;61985;51.070;14.064;2023-06-14T01:56:08;5.38;;;3.45;;
73684;SDS011;61985;51.070;14.064;2023-06-14T01:58:34;7.57;;;3.75;;
73684;SDS011;61985;51.070;14.064;2023-06-14T02:01:00;9.18;;;4.10;;
73684;SDS011;61985;51.070;14.064;2023-06-14T02:03:25;5.80;;;3.55;;
73684;SDS011;61985;51.070;14.064;2023-06-14T02:05:51;8.45;;;3.70;;
73684;SDS011;61985;51.070;14.064;2023-06-14T02:08:17;7.32;;;4.10;;
73684;SDS011;61985;51.070;14.064;2023-06-14T02:10:42;5.32;;;3.55;;
73684;SDS011;61985;51.070;14.064;2023-06-14T02:13:07;7.30;;;4.30;;
73684;SDS011;61985;51.070;14.064;2023-06-14T02:15:33;6.15;;;3.78;;
73684;SDS011;61985;51.070;14.064;2023-06-14T02:18:01;8.30;;;3.95;;
73684;SDS011;61985;51.070;14.064;2023-06-14T02:20:28;8.52;;;4.22;;
73684;SDS011;61985;51.070;14.064;2023-06-14T02:22:53;6.93;;;4.07;;
73684;SDS011;61985;51.070;14.064;2023-06-14T02:25:19;6.95;;;4.30;;
73684;SDS011;61985;51.070;14.064;2023-06-14T02:27:44;6.35;;;4.40;;
73684;SDS011;61985;51.070;14.064;2023-06-14T02:30:10;8.57;;;4.10;;
73684;SDS011;61985;51.070;14.064;2023-06-14T02:32:36;7.38;;;4.15;;
73684;SDS011;61985;51.070;14.064;2023-06-14T02:35:02;6.38;;;4.00;;
73684;SDS011;61985;51.070;14.064;2023-06-14T02:37:27;9.85;;;4.55;;
73684;SDS011;61985;51.070;14.064;2023-06-14T02:39:53;8.40;;;4.47;;
73684;SDS011;61985;51.070;14.064;2023-06-14T02:42:18;6.80;;;3.95;;
73684;SDS011;61985;51.070;14.064;2023-06-14T02:44:43;9.68;;;4.05;;
73684;SDS011;61985;51.070;14.064;2023-06-14T02:47:10;6.75;;;4.10;;
73684;SDS011;61985;51.070;14.064;2023-06-14T02:49:35;6.65;;;4.15;;
73684;SDS011;61985;51.070;14.064;2023-06-14T02:52:00;8.50;;;4.25;;
73684;SDS011;61985;51.070;14.064;2023-06-14T02:54:26;7.10;;;4.47;;
73684;SDS011;61985;51.070;14.064;2023-06-14T02:56:51;7.20;;;4.22;;
73684;SDS011;61985;51.070;14.064;2023-06-14T02:59:16;7.60;;;4.30;;
73684;SDS011;61985;51.070;14.064;2023-06-14T03:01:42;6.85;;;4.40;;
73684;SDS011;61985;51.070;14.064;2023-06-14T03:04:07;7.32;;;4.60;;
73684;SDS011;61985;51.070;14.064;2023-06-14T03:06:33;7.65;;;4.47;;
73684;SDS011;61985;51.070;14.064;2023-06-14T03:08:59;7.68;;;4.00;;
73684;SDS011;61985;51.070;14.064;2023-06-14T03:11:26;6.60;;;4.20;;
73684;SDS011;61985;51.070;14.064;2023-06-14T03:13:52;7.70;;;4.03;;
73684;SDS011;61985;51.070;14.064;2023-06-14T03:16:18;6.97;;;3.80;;
73684;SDS011;61985;51.070;14.064;2023-06-14T03:18:48;10.90;;;4.40;;
73684;SDS011;61985;51.070;14.064;2023-06-14T03:21:14;6.57;;;4.22;;
73684;SDS011;61985;51.070;14.064;2023-06-14T03:23:40;7.03;;;4.07;;
73684;SDS011;61985;51.070;14.064;2023-06-14T03:26:06;10.18;;;4.15;;
73684;SDS011;61985;51.070;14.064;2023-06-14T03:28:31;6.60;;;4.18;;
73684;SDS011;61985;51.070;14.064;2023-06-14T03:30:56;7.50;;;4.90;;
73684;SDS011;61985;51.070;14.064;2023-06-14T03:33:22;8.32;;;4.70;;
73684;SDS011;61985;51.070;14.064;2023-06-14T03:35:47;7.85;;;5.10;;
73684;SDS011;61985;51.070;14.064;2023-06-14T03:38:12;6.63;;;4.22;;
73684;SDS011;61985;51.070;14.064;2023-06-14T03:40:38;8.68;;;4.85;;
73684;SDS011;61985;51.070;14.064;2023-06-14T03:43:03;8.48;;;4.68;;
73684;SDS011;61985;51.070;14.064;2023-06-14T03:45:29;7.72;;;4.80;;
73684;SDS011;61985;51.070;14.064;2023-06-14T03:47:54;7.85;;;5.05;;
73684;SDS011;61985;51.070;14.064;2023-06-14T03:50:20;7.75;;;4.68;;
73684;SDS011;61985;51.070;14.064;2023-06-14T03:52:47;7.38;;;5.20;;
73684;SDS011;61985;51.070;14.064;2023-06-14T03:55:13;9.43;;;5.28;;
73684;SDS011;61985;51.070;14.064;2023-06-14T03:57:41;8.10;;;5.35;;
73684;SDS011;61985;51.070;14.064;2023-06-14T04:00:07;8.27;;;4.63;;
73684;SDS011;61985;51.070;14.064;2023-06-14T04:02:34;7.50;;;4.82;;
73684;SDS011;61985;51.070;14.064;2023-06-14T04:04:59;7.28;;;4.57;;
73684;SDS011;61985;51.070;14.064;2023-06-14T04:07:25;9.52;;;5.10;;
73684;SDS011;61985;51.070;14.064;2023-06-14T04:09:53;7.55;;;4.47;;
73684;SDS011;61985;51.070;14.064;2023-06-14T04:12:18;8.65;;;5.20;;
73684;SDS011;61985;51.070;14.064;2023-06-14T04:14:44;7.63;;;4.22;;
73684;SDS011;61985;51.070;14.064;2023-06-14T04:17:09;8.05;;;5.25;;
73684;SDS011;61985;51.070;14.064;2023-06-14T04:19:34;7.63;;;4.93;;
73684;SDS011;61985;51.070;14.064;2023-06-14T04:22:00;8.45;;;5.13;;
73684;SDS011;61985;51.070;14.064;2023-06-14T04:24:27;8.15;;;5.10;;
73684;SDS011;61985;51.070;14.064;2023-06-14T04:26:57;7.63;;;5.05;;
73684;SDS011;61985;51.070;14.064;2023-06-14T04:29:23;8.35;;;5.05;;
73684;SDS011;61985;51.070;14.064;2023-06-14T04:31:51;9.80;;;5.00;;
73684;SDS011;61985;51.070;14.064;2023-06-14T04:34:19;8.50;;;5.10;;
73684;SDS011;61985;51.070;14.064;2023-06-14T04:36:46;13.50;;;5.82;;
73684;SDS011;61985;51.070;14.064;2023-06-14T04:39:21;7.73;;;4.53;;
73684;SDS011;61985;51.070;14.064;2023-06-14T04:41:47;8.93;;;4.82;;
73684;SDS011;61985;51.070;14.064;2023-06-14T04:44:12;8.65;;;5.30;;
73684;SDS011;61985;51.070;14.064;2023-06-14T04:46:38;8.48;;;5.20;;
73684;SDS011;61985;51.070;14.064;2023-06-14T04:49:13;8.38;;;5.10;;
73684;SDS011;61985;51.070;14.064;2023-06-14T04:51:40;8.85;;;5.38;;
73684;SDS011;61985;51.070;14.064;2023-06-14T04:54:09;7.70;;;5.40;;
73684;SDS011;61985;51.070;14.064;2023-06-14T04:56:38;9.20;;;5.85;;
73684;SDS011;61985;51.070;14.064;2023-06-14T04:59:03;7.80;;;5.28;;
73684;SDS011;61985;51.070;14.064;2023-06-14T05:01:32;8.90;;;5.38;;
73684;SDS011;61985;51.070;14.064;2023-06-14T05:03:58;8.98;;;5.72;;
73684;SDS011;61985;51.070;14.064;2023-06-14T05:06:23;9.73;;;5.97;;
73684;SDS011;61985;51.070;14.064;2023-06-14T05:08:49;7.65;;;5.07;;
73684;SDS011;61985;51.070;14.064;2023-06-14T05:11:15;9.05;;;5.40;;
73684;SDS011;61985;51.070;14.064;2023-06-14T05:13:41;10.45;;;5.50;;
73684;SDS011;61985;51.070;14.064;2023-06-14T05:16:07;9.20;;;5.65;;
73684;SDS011;61985;51.070;14.064;2023-06-14T05:18:32;8.70;;;5.55;;
73684;SDS011;61985;51.070;14.064;2023-06-14T05:21:00;10.15;;;5.80;;
73684;SDS011;61985;51.070;14.064;2023-06-14T05:23:26;9.65;;;5.38;;
73684;SDS011;61985;51.070;14.064;2023-06-14T05:25:51;9.30;;;5.40;;
73684;SDS011;61985;51.070;14.064;2023-06-14T05:28:16;9.07;;;5.60;;
73684;SDS011;61985;51.070;14.064;2023-06-14T05:30:42;9.63;;;5.40;;
73684;SDS011;61985;51.070;14.064;2023-06-14T05:33:07;9.30;;;5.82;;
73684;SDS011;61985;51.070;14.064;2023-06-14T05:35:33;8.35;;;4.75;;
73684;SDS011;61985;51.070;14.064;2023-06-14T05:37:58;8.75;;;5.18;;
73684;SDS011;61985;51.070;14.064;2023-06-14T05:40:24;8.10;;;4.60;;
73684;SDS011;61985;51.070;14.064;2023-06-14T05:42:49;9.45;;;5.47;;
73684;SDS011;61985;51.070;14.064;2023-06-14T05:45:15;9.43;;;5.25;;
73684;SDS011;61985;51.070;14.064;2023-06-14T05:47:41;7.90;;;5.32;;
73684;SDS011;61985;51.070;14.064;2023-06-14T05:50:07;10.13;;;6.00;;
73684;SDS011;61985;51.070;14.064;2023-06-14T05:52:33;8.48;;;5.88;;
73684;SDS011;61985;51.070;14.064;2023-06-14T05:55:00;9.57;;;6.15;;
73684;SDS011;61985;51.070;14.064;2023-06-14T05:57:25;10.73;;;5.32;;
73684;SDS011;61985;51.070;14.064;2023-06-14T05:59:51;10.05;;;4.80;;
73684;SDS011;61985;51.070;14.064;2023-06-14T06:02:16;8.73;;;5.75;;
73684;SDS011;61985;51.070;14.064;2023-06-14T06:04:42;8.68;;;5.65;;
73684;SDS011;61985;51.070;14.064;2023-06-14T06:07:07;8.57;;;5.63;;
73684;SDS011;61985;51.070;14.064;2023-06-14T06:09:32;9.48;;;5.15;;
73684;SDS011;61985;51.070;14.064;2023-06-14T06:11:58;9.80;;;5.70;;
73684;SDS011;61985;51.070;14.064;2023-06-14T06:14:23;12.00;;;6.00;;
73684;SDS011;61985;51.070;14.064;2023-06-14T06:16:49;8.68;;;5.38;;
73684;SDS011;61985;51.070;14.064;2023-06-14T06:19:14;8.20;;;4.95;;
73684;SDS011;61985;51.070;14.064;2023-06-14T06:21:40;8.95;;;5.07;;
73684;SDS011;61985;51.070;14.064;2023-06-14T06:24:05;9.57;;;5.28;;
73684;SDS011;61985;51.070;14.064;2023-06-14T06:26:31;8.55;;;5.15;;
73684;SDS011;61985;51.070;14.064;2023-06-14T06:28:57;9.38;;;5.38;;
73684;SDS011;61985;51.070;14.064;2023-06-14T06:31:25;7.18;;;5.00;;
73684;SDS011;61985;51.070;14.064;2023-06-14T06:33:52;7.18;;;4.53;;
73684;SDS011;61985;51.070;14.064;2023-06-14T06:36:19;10.38;;;5.40;;
73684;SDS011;61985;51.070;14.064;2023-06-14T06:38:45;8.98;;;4.65;;
73684;SDS011;61985;51.070;14.064;2023-06-14T06:41:10;7.22;;;4.40;;
73684;SDS011;61985;51.070;14.064;2023-06-14T06:43:35;8.52;;;5.20;;
73684;SDS011;61985;51.070;14.064;2023-06-14T06:46:01;11.32;;;5.05;;
73684;SDS011;61985;51.070;14.064;2023-06-14T06:48:26;8.15;;;4.53;;
73684;SDS011;61985;51.070;14.064;2023-06-14T06:50:51;8.40;;;4.15;;
73684;SDS011;61985;51.070;14.064;2023-06-14T06:53:26;6.93;;;4.38;;
73684;SDS011;61985;51.070;14.064;2023-06-14T06:55:51;6.70;;;4.22;;
73684;SDS011;61985;51.070;14.064;2023-06-14T06:58:16;8.80;;;4.32;;
73684;SDS011;61985;51.070;14.064;2023-06-14T07:00:42;7.10;;;4.20;;
73684;SDS011;61985;51.070;14.064;2023-06-14T07:03:07;6.90;;;4.13;;
73684;SDS011;61985;51.070;14.064;2023-06-14T07:05:33;6.85;;;4.35;;
73684;SDS011;61985;51.070;14.064;2023-06-14T07:07:58;5.75;;;3.60;;
73684;SDS011;61985;51.070;14.064;2023-06-14T07:10:23;6.93;;;3.53;;
73684;SDS011;61985;51.070;14.064;2023-06-14T07:12:52;8.35;;;3.30;;
73684;SDS011;61985;51.070;14.064;2023-06-14T07:15:17;5.43;;;3.20;;
73684;SDS011;61985;51.070;14.064;2023-06-14T07:17:42;7.18;;;3.05;;
73684;SDS011;61985;51.070;14.064;2023-06-14T07:20:08;6.00;;;3.38;;
73684;SDS011;61985;51.070;14.064;2023-06-14T07:22:39;5.13;;;3.05;;
73684;SDS011;61985;51.070;14.064;2023-06-14T07:25:06;4.75;;;2.60;;
73684;SDS011;61985;51.070;14.064;2023-06-14T07:27:33;4.47;;;2.88;;
73684;SDS011;61985;51.070;14.064;2023-06-14T07:29:58;5.78;;;3.05;;
73684;SDS011;61985;51.070;14.064;2023-06-14T07:32:24;3.80;;;2.53;;
73684;SDS011;61985;51.070;14.064;2023-06-14T07:34:49;5.47;;;3.33;;
73684;SDS011;61985;51.070;14.064;2023-06-14T07:37:14;7.15;;;3.03;;
73684;SDS011;61985;51.070;14.064;2023-06-14T07:39:41;6.75;;;2.85;;
73684;SDS011;61985;51.070;14.064;2023-06-14T07:42:06;8.68;;;2.70;;
73684;SDS011;61985;51.070;14.064;2023-06-14T07:44:32;5.05;;;2.83;;
73684;SDS011;61985;51.070;14.064;2023-06-14T07:46:57;5.75;;;3.05;;
73684;SDS011;61985;51.070;14.064;2023-06-14T07:49:24;5.32;;;3.58;;
73684;SDS011;61985;51.070;14.064;2023-06-14T07:51:50;6.63;;;2.58;;
73684;SDS011;61985;51.070;14.064;2023-06-14T07:54:15;6.18;;;2.72;;
73684;SDS011;61985;51.070;14.064;2023-06-14T07:56:41;6.18;;;3.20;;
73684;SDS011;61985;51.070;14.064;2023-06-14T07:59:07;5.80;;;3.30;;
73684;SDS011;61985;51.070;14.064;2023-06-14T08:01:32;4.70;;;3.17;;
73684;SDS011;61985;51.070;14.064;2023-06-14T08:03:58;8.32;;;3.15;;
73684;SDS011;61985;51.070;14.064;2023-06-14T08:06:23;7.35;;;3.08;;
73684;SDS011;61985;51.070;14.064;2023-06-14T08:08:49;9.10;;;5.30;;
73684;SDS011;61985;51.070;14.064;2023-06-14T08:11:14;4.85;;;3.25;;
73684;SDS011;61985;51.070;14.064;2023-06-14T08:13:40;5.18;;;2.80;;
73684;SDS011;61985;51.070;14.064;2023-06-14T08:16:05;6.13;;;3.00;;
73684;SDS011;61985;51.070;14.064;2023-06-14T08:18:30;6.65;;;2.92;;
73684;SDS011;61985;51.070;14.064;2023-06-14T08:20:56;4.82;;;2.75;;
73684;SDS011;61985;51.070;14.064;2023-06-14T08:23:22;5.95;;;3.00;;
73684;SDS011;61985;51.070;14.064;2023-06-14T08:25:48;4.07;;;2.90;;
73684;SDS011;61985;51.070;14.064;2023-06-14T08:28:13;4.30;;;2.78;;
73684;SDS011;61985;51.070;14.064;2023-06-14T08:30:39;5.63;;;3.03;;
73684;SDS011;61985;51.070;14.064;2023-06-14T08:33:04;7.15;;;3.00;;
73684;SDS011;61985;51.070;14.064;2023-06-14T08:35:30;6.18;;;3.40;;
73684;SDS011;61985;51.070;14.064;2023-06-14T08:37:55;5.22;;;2.88;;
73684;SDS011;61985;51.070;14.064;2023-06-14T08:40:21;5.68;;;3.42;;
73684;SDS011;61985;51.070;14.064;2023-06-14T08:42:53;4.65;;;2.75;;
73684;SDS011;61985;51.070;14.064;2023-06-14T08:45:20;4.15;;;2.85;;
73684;SDS011;61985;51.070;14.064;2023-06-14T08:47:50;3.95;;;2.83;;
73684;SDS011;61985;51.070;14.064;2023-06-14T08:50:20;4.22;;;2.72;;
73684;SDS011;61985;51.070;14.064;2023-06-14T08:52:48;4.38;;;2.55;;
73684;SDS011;61985;51.070;14.064;2023-06-14T08:55:17;4.25;;;2.50;;
73684;SDS011;61985;51.070;14.064;2023-06-14T08:57:45;5.68;;;3.17;;
73684;SDS011;61985;51.070;14.064;2023-06-14T09:00:12;5.32;;;2.80;;
73684;SDS011;61985;51.070;14.064;2023-06-14T09:02:38;5.63;;;3.60;;
73684;SDS011;61985;51.070;14.064;2023-06-14T09:05:09;5.03;;;2.90;;
73684;SDS011;61985;51.070;14.064;2023-06-14T09:07:35;4.28;;;2.80;;
73684;SDS011;61985;51.070;14.064;2023-06-14T09:10:08;5.10;;;2.83;;
73684;SDS011;61985;51.070;14.064;2023-06-14T09:12:37;4.07;;;2.75;;
73684;SDS011;61985;51.070;14.064;2023-06-14T09:15:05;5.13;;;3.10;;
73684;SDS011;61985;51.070;14.064;2023-06-14T09:17:33;5.55;;;2.63;;
73684;SDS011;61985;51.070;14.064;2023-06-14T09:20:05;5.00;;;2.88;;
73684;SDS011;61985;51.070;14.064;2023-06-14T09:22:35;4.60;;;2.70;;
73684;SDS011;61985;51.070;14.064;2023-06-14T09:25:01;3.80;;;2.58;;
73684;SDS011;61985;51.070;14.064;2023-06-14T09:27:27;4.20;;;2.40;;
73684;SDS011;61985;51.070;14.064;2023-06-14T09:29:53;5.07;;;2.60;;
73684;SDS011;61985;51.070;14.064;2023-06-14T09:32:18;3.72;;;2.45;;
73684;SDS011;61985;51.070;14.064;2023-06-14T09:34:45;4.70;;;2.58;;
73684;SDS011;61985;51.070;14.064;2023-06-14T09:37:11;8.65;;;3.10;;
73684;SDS011;61985;51.070;14.064;2023-06-14T09:39:48;5.38;;;3.10;;
73684;SDS011;61985;51.070;14.064;2023-06-14T09:42:18;5.80;;;3.20;;
73684;SDS011;61985;51.070;14.064;2023-06-14T09:44:47;4.82;;;2.80;;
73684;SDS011;61985;51.070;14.064;2023-06-14T09:47:16;4.47;;;3.00;;
73684;SDS011;61985;51.070;14.064;2023-06-14T09:49:42;5.07;;;3.03;;
73684;SDS011;61985;51.070;14.064;2023-06-14T09:52:13;5.45;;;2.90;;
73684;SDS011;61985;51.070;14.064;2023-06-14T09:54:40;5.22;;;2.70;;
73684;SDS011;61985;51.070;14.064;2023-06-14T09:57:16;7.85;;;3.25;;
73684;SDS011;61985;51.070;14.064;2023-06-14T09:59:47;4.80;;;2.70;;
73684;SDS011;61985;51.070;14.064;2023-06-14T10:02:27;8.50;;;2.83;;
73684;SDS011;61985;51.070;14.064;2023-06-14T10:04:58;5.75;;;2.78;;
73684;SDS011;61985;51.070;14.064;2023-06-14T10:07:31;4.10;;;2.78;;
73684;SDS011;61985;51.070;14.064;2023-06-14T10:10:07;3.22;;;2.28;;
73684;SDS011;61985;51.070;14.064;2023-06-14T10:12:33;4.55;;;2.70;;
73684;SDS011;61985;51.070;14.064;2023-06-14T10:14:59;4.80;;;2.25;;
73684;SDS011;61985;51.070;14.064;2023-06-14T10:17:40;5.30;;;2.30;;
73684;SDS011;61985;51.070;14.064;2023-06-14T10:20:24;4.25;;;2.40;;
73684;SDS011;61985;51.070;14.064;2023-06-14T10:22:57;4.68;;;2.60;;
73684;SDS011;61985;51.070;14.064;2023-06-14T10:25:30;6.10;;;2.83;;
73684;SDS011;61985;51.070;14.064;2023-06-14T10:30:37;5.07;;;2.67;;
73684;SDS011;61985;51.070;14.064;2023-06-14T10:33:06;3.63;;;2.47;;
73684;SDS011;61985;51.070;14.064;2023-06-14T10:35:32;2.92;;;1.90;;
73684;SDS011;61985;51.070;14.064;2023-06-14T10:38:07;3.88;;;2.13;;
73684;SDS011;61985;51.070;14.064;2023-06-14T10:40:53;4.72;;;2.42;;
73684;SDS011;61985;51.070;14.064;2023-06-14T10:43:21;2.63;;;1.85;;
73684;SDS011;61985;51.070;14.064;2023-06-14T10:48:56;5.13;;;2.13;;
73684;SDS011;61985;51.070;14.064;2023-06-14T10:51:22;5.82;;;2.50;;
73684;SDS011;61985;51.070;14.064;2023-06-14T10:53:48;4.03;;;2.60;;
73684;SDS011;61985;51.070;14.064;2023-06-14T10:56:27;5.82;;;3.05;;
73684;SDS011;61985;51.070;14.064;2023-06-14T10:58:55;4.75;;;3.10;;
73684;SDS011;61985;51.070;14.064;2023-06-14T11:01:24;6.40;;;3.20;;
73684;SDS011;61985;51.070;14.064;2023-06-14T11:04:00;5.93;;;3.78;;
73684;SDS011;61985;51.070;14.064;2023-06-14T11:06:36;9.95;;;3.92;;
73684;SDS011;61985;51.070;14.064;2023-06-14T11:12:19;5.47;;;3.45;;
73684;SDS011;61985;51.070;14.064;2023-06-14T11:14:46;4.43;;;2.97;;
73684;SDS011;61985;51.070;14.064;2023-06-14T11:17:12;5.97;;;3.22;;
73684;SDS011;61985;51.070;14.064;2023-06-14T11:19:38;7.50;;;3.30;;
73684;SDS011;61985;51.070;14.064;2023-06-14T11:22:03;5.88;;;3.15;;
73684;SDS011;61985;51.070;14.064;2023-06-14T11:24:29;5.10;;;3.55;;
73684;SDS011;61985;51.070;14.064;2023-06-14T11:26:55;7.00;;;3.60;;
73684;SDS011;61985;51.070;14.064;2023-06-14T11:29:21;7.85;;;3.88;;
73684;SDS011;61985;51.070;14.064;2023-06-14T11:31:46;5.30;;;3.53;;
73684;SDS011;61985;51.070;14.064;2023-06-14T11:34:12;6.45;;;4.25;;
73684;SDS011;61985;51.070;14.064;2023-06-14T11:36:38;7.93;;;4.30;;
73684;SDS011;61985;51.070;14.064;2023-06-14T11:39:04;8.23;;;4.40;;
73684;SDS011;61985;51.070;14.064;2023-06-14T11:41:40;7.30;;;4.40;;
73684;SDS011;61985;51.070;14.064;2023-06-14T11:44:07;6.53;;;4.00;;
73684;SDS011;61985;51.070;14.064;2023-06-14T11:46:33;6.28;;;4.40;;
73684;SDS011;61985;51.070;14.064;2023-06-14T11:48:59;8.43;;;4.43;;
73684;SDS011;61985;51.070;14.064;2023-06-14T11:51:27;8.13;;;4.05;;
73684;SDS011;61985;51.070;14.064;2023-06-14T11:53:53;11.80;;;4.20;;
73684;SDS011;61985;51.070;14.064;2023-06-14T11:56:19;7.88;;;3.85;;
73684;SDS011;61985;51.070;14.064;2023-06-14T11:58:44;6.20;;;3.80;;
73684;SDS011;61985;51.070;14.064;2023-06-14T12:01:13;6.82;;;3.80;;
73684;SDS011;61985;51.070;14.064;2023-06-14T12:03:40;7.32;;;3.97;;
73684;SDS011;61985;51.070;14.064;2023-06-14T12:06:13;8.15;;;3.80;;
73684;SDS011;61985;51.070;14.064;2023-06-14T12:08:38;5.13;;;3.28;;
73684;SDS011;61985;51.070;14.064;2023-06-14T12:11:11;5.80;;;3.58;;
73684;SDS011;61985;51.070;14.064;2023-06-14T12:13:41;6.68;;;3.95;;
73684;SDS011;61985;51.070;14.064;2023-06-14T12:16:11;6.20;;;4.35;;
73684;SDS011;61985;51.070;14.064;2023-06-14T12:18:37;10.15;;;4.20;;
73684;SDS011;61985;51.070;14.064;2023-06-14T12:21:07;6.65;;;4.25;;
73684;SDS011;61985;51.070;14.064;2023-06-14T12:26:11;9.32;;;4.40;;
73684;SDS011;61985;51.070;14.064;2023-06-14T12:28:37;10.30;;;4.32;;
73684;SDS011;61985;51.070;14.064;2023-06-14T12:31:06;6.53;;;3.53;;
73684;SDS011;61985;51.070;14.064;2023-06-14T12:33:32;7.13;;;4.28;;
73684;SDS011;61985;51.070;14.064;2023-06-14T12:35:57;7.40;;;4.10;;
73684;SDS011;61985;51.070;14.064;2023-06-14T12:38:23;5.72;;;4.00;;
73684;SDS011;61985;51.070;14.064;2023-06-14T12:40:49;5.63;;;3.65;;
73684;SDS011;61985;51.070;14.064;2023-06-14T12:43:15;7.57;;;3.80;;
73684;SDS011;61985;51.070;14.064;2023-06-14T12:45:40;6.88;;;4.22;;
73684;SDS011;61985;51.070;14.064;2023-06-14T12:48:05;6.55;;;4.00;;
73684;SDS011;61985;51.070;14.064;2023-06-14T12:50:31;8.60;;;4.10;;
73684;SDS011;61985;51.070;14.064;2023-06-14T12:52:56;7.38;;;4.03;;
73684;SDS011;61985;51.070;14.064;2023-06-14T12:55:21;6.57;;;4.00;;
73684;SDS011;61985;51.070;14.064;2023-06-14T12:57:47;6.07;;;4.20;;
73684;SDS011;61985;51.070;14.064;2023-06-14T13:00:14;9.38;;;4.78;;
73684;SDS011;61985;51.070;14.064;2023-06-14T13:02:40;7.30;;;3.75;;
73684;SDS011;61985;51.070;14.064;2023-06-14T13:05:06;6.60;;;3.83;;
73684;SDS011;61985;51.070;14.064;2023-06-14T13:07:32;7.60;;;3.78;;
73684;SDS011;61985;51.070;14.064;2023-06-14T13:09:57;6.32;;;3.53;;
73684;SDS011;61985;51.070;14.064;2023-06-14T13:12:22;7.07;;;3.50;;
73684;SDS011;61985;51.070;14.064;2023-06-14T13:14:48;6.32;;;3.78;;
73684;SDS011;61985;51.070;14.064;2023-06-14T13:17:13;5.50;;;3.85;;
73684;SDS011;61985;51.070;14.064;2023-06-14T13:19:38;6.45;;;3.45;;
73684;SDS011;61985;51.070;14.064;2023-06-14T13:22:04;4.75;;;3.35;;
73684;SDS011;61985;51.070;14.064;2023-06-14T13:24:29;7.68;;;3.67;;
73684;SDS011;61985;51.070;14.064;2023-06-14T13:26:55;6.32;;;3.28;;
73684;SDS011;61985;51.070;14.064;2023-06-14T13:29:22;5.45;;;3.28;;
73684;SDS011;61985;51.070;14.064;2023-06-14T13:31:48;6.95;;;3.80;;
73684;SDS011;61985;51.070;14.064;2023-06-14T13:34:13;7.00;;;3.60;;
73684;SDS011;61985;51.070;14.064;2023-06-14T13:36:38;5.30;;;3.42;;
73684;SDS011;61985;51.070;14.064;2023-06-14T13:39:04;6.07;;;3.50;;
73684;SDS011;61985;51.070;14.064;2023-06-14T13:41:29;5.93;;;3.63;;
73684;SDS011;61985;51.070;14.064;2023-06-14T13:43:57;8.27;;;3.47;;
73684;SDS011;61985;51.070;14.064;2023-06-14T13:46:23;12.38;;;6.13;;
73684;SDS011;61985;51.070;14.064;2023-06-14T13:48:49;5.90;;;3.60;;
73684;SDS011;61985;51.070;14.064;2023-06-14T13:51:14;7.32;;;3.70;;
73684;SDS011;61985;51.070;14.064;2023-06-14T13:53:39;6.13;;;3.22;;
73684;SDS011;61985;51.070;14.064;2023-06-14T13:56:05;4.88;;;3.38;;
73684;SDS011;61985;51.070;14.064;2023-06-14T13:58:30;5.10;;;3.00;;
73684;SDS011;61985;51.070;14.064;2023-06-14T14:00:56;7.15;;;3.13;;
73684;SDS011;61985;51.070;14.064;2023-06-14T14:03:21;6.10;;;3.00;;
73684;SDS011;61985;51.070;14.064;2023-06-14T14:05:47;5.45;;;3.15;;
73684;SDS011;61985;51.070;14.064;2023-06-14T14:08:12;5.38;;;3.50;;
73684;SDS011;61985;51.070;14.064;2023-06-14T14:10:37;8.20;;;3.55;;
73684;SDS011;61985;51.070;14.064;2023-06-14T14:13:03;6.00;;;3.10;;
73684;SDS011;61985;51.070;14.064;2023-06-14T14:15:28;6.57;;;3.40;;
73684;SDS011;61985;51.070;14.064;2023-06-14T14:17:54;6.07;;;3.70;;
73684;SDS011;61985;51.070;14.064;2023-06-14T14:20:22;4.97;;;3.30;;
73684;SDS011;61985;51.070;14.064;2023-06-14T14:22:48;6.47;;;3.58;;
73684;SDS011;61985;51.070;14.064;2023-06-14T14:25:13;7.40;;;3.33;;
73684;SDS011;61985;51.070;14.064;2023-06-14T14:27:38;6.43;;;3.55;;
73684;SDS011;61985;51.070;14.064;2023-06-14T14:30:04;5.03;;;3.28;;
73684;SDS011;61985;51.070;14.064;2023-06-14T14:32:30;4.85;;;3.30;;
73684;SDS011;61985;51.070;14.064;2023-06-14T14:34:56;5.97;;;3.13;;
73684;SDS011;61985;51.070;14.064;2023-06-14T14:37:21;5.43;;;2.78;;
73684;SDS011;61985;51.070;14.064;2023-06-14T14:39:46;5.18;;;3.20;;
73684;SDS011;61985;51.070;14.064;2023-06-14T14:42:12;5.68;;;3.03;;
73684;SDS011;61985;51.070;14.064;2023-06-14T14:44:38;4.80;;;2.75;;
73684;SDS011;61985;51.070;14.064;2023-06-14T14:47:04;4.60;;;3.08;;